Pagina principală
METAR-TAF:

METAR-TAF

Aeroporturi :

Cuenca, Ecuador

Latitudine: 02-53-22S, longitudine: 078-59-04W, elevație: 2532 m

Observații meteo curente

Raportul a fost făcut în urmă cu 1 oră și 15 de minute, la 16:00 UTC
Vânt 5 kt de la Nord-est
Temperatură 20°C
Umiditate 60%
Presiune 1027 hPa
Vizibilitate de 10 km sau mai mult
Nori fragmentați la o înălțime de 4000 picior

METAR: SECU 181600Z 04005KT 9999 BKN040 20/12 Q1027

Ora: 12:15 (17:15 UTC)


TAF: lipsă

Observații și prognoze meteo pentru peste 4.000 de aeroporturi (rapoarte METAR și TAF).

Stațiile disponibile sunt reprezentate pe hartă prin puncte galbene și roșii.

Țineți indicatorul mouse-ului pe punctul dorit pentru a vedea denumirea stației.

Apoi, faceți clic pentru a vedea observațiile și prognozele meteorologice.

Pentru a schimba harta: Pentru mărire, faceți clic pe butoanele verzi cu cruce neagră; pentru micșorare, pe butonul verde cu o liniuță; pentru hărți învecinate, pe săgețile verzi.


METAR-TAF: